To NAV CANADA Home Page Login to a new session Search on AWWS site Disclaimer Vers la page française équivalente Tips FAQ What's new on the site To the Forecasts and Observations / NOTAM section To "File a Flight Plan" website Publications and other links Update of the User's profile FIC Telephone Numbers My Weather Data Folder Route Weather Data Regional Weather Data Local Weather Data To the Forecasts and Observations / NOTAM section
Request Generated 11/13/2018 at 18:59:50 UTC . Weather information available at that time is displayed.

METAR/TAF

CARTWRIGHT/NL    

METAR CYCA 131800Z AUTO 30014G21KT 9SM OVC040 M02/M05 A3003 RMK SLP170=
METAR CYCA 131700Z AUTO 30014G21KT 9SM FEW018 OVC042 M02/M05 A2999 RMK SLP158=
METAR CYCA 131600Z AUTO 31015G24KT 9SM OVC044 M02/M05 A2998 RMK SLP155=

TAF CYCA 131338Z 1314/1402 31015G25KT P6SM BKN030 TEMPO 1314/1324
BKN020
BECMG 1318/1320 30012KT
FM140000 27008KT P6SM SCT160
RMK FCST BASED ON AUTO OBS. NXT FCST BY 132000Z=
Your time UTC time
Weather data provided by Environment Canada and NAV CANADA